Time;durP1;ratioP1;P1;durP2;ratioP2;P2;SDS_P1;SDS_P2;PMS_P1;PMS_P2;Temp;Humidity;BMP_temperature;BMP_pressure;BME280_temperature;BME280_humidity;BME280_pressure;Samples;Min_cycle;Max_cycle;Signal;HPM_P1;HPM_P2
2022/06/20 00:06:58;;;;;;;2.63;0.52;;;13.60;99.90;;;;;;20883424;28;20039;-39
2022/06/20 00:17:02;;;;;;;0.85;0.35;;;13.60;99.90;;;;;;20871633;28;20044;-39
2022/06/20 00:27:06;;;;;;;1.90;0.52;;;13.60;99.90;;;;;;20852346;28;20540;-39
2022/06/20 00:37:17;;;;;;;4.33;1.10;;;13.60;99.90;;;;;;20863214;28;20593;-39
2022/06/20 00:47:34;;;;;;;1.35;0.57;;;13.60;99.90;;;;;;20874036;28;20029;-39
2022/06/20 00:57:42;;;;;;;1.02;0.40;;;13.50;99.90;;;;;;20892367;28;20036;-39
2022/06/20 01:07:54;;;;;;;1.42;0.50;;;13.50;99.90;;;;;;20895092;28;21927;-39
2022/06/20 01:17:56;;;;;;;1.40;0.40;;;13.50;99.90;;;;;;20899457;28;20051;-39
2022/06/20 01:28:00;;;;;;;5.85;0.80;;;13.50;99.90;;;;;;20880009;28;20039;-39
2022/06/20 01:38:04;;;;;;;1.65;0.50;;;13.40;99.90;;;;;;20870214;28;20049;-39
2022/06/20 01:48:11;;;;;;;1.80;0.60;;;13.50;99.90;;;;;;20849690;28;20967;-40
2022/06/20 01:58:22;;;;;;;1.80;0.60;;;13.60;99.90;;;;;;20853242;28;20041;-39
2022/06/20 02:08:24;;;;;;;2.08;0.60;;;13.50;99.90;;;;;;20851283;28;20033;-39
2022/06/20 02:18:29;;;;;;;1.27;0.40;;;13.50;99.90;;;;;;20849202;28;20071;-39
2022/06/20 02:28:43;;;;;;;1.13;0.40;;;13.50;99.90;;;;;;20829156;28;20832;-39
2022/06/20 02:38:45;;;;;;;2.20;0.65;;;13.50;99.90;;;;;;20858288;28;20967;-39
2022/06/20 02:48:49;;;;;;;0.90;0.30;;;13.40;99.90;;;;;;20864373;28;21404;-39
2022/06/20 02:59:04;;;;;;;0.90;0.40;;;13.30;99.90;;;;;;20852497;28;20075;-39
2022/06/20 03:09:06;;;;;;;0.68;0.30;;;13.20;99.90;;;;;;20863114;28;20039;-39
2022/06/20 03:19:19;;;;;;;1.38;0.50;;;13.20;99.90;;;;;;20853503;28;20514;-39
2022/06/20 03:29:25;;;;;;;1.25;0.40;;;13.10;99.90;;;;;;20850579;28;20035;-39
2022/06/20 03:39:26;;;;;;;2.78;0.32;;;13.00;99.90;;;;;;20863473;28;20036;-39
2022/06/20 03:49:34;;;;;;;2.42;0.50;;;13.00;99.90;;;;;;20859766;28;20048;-39
2022/06/20 03:59:46;;;;;;;;;;;13.00;99.90;;;;;;20853987;28;20068;-39
2022/06/20 04:20:45;;;;;;;2.13;0.30;;;13.00;99.90;;;;;;20849220;28;20047;-39
2022/06/20 04:31:18;;;;;;;1.95;0.40;;;13.10;99.90;;;;;;20834894;28;20480;-40
2022/06/20 04:41:50;;;;;;;1.40;0.50;;;13.10;99.90;;;;;;20736693;28;20037;-40
2022/06/20 04:51:52;;;;;;;1.20;0.40;;;13.30;99.90;;;;;;20864348;28;20463;-40
2022/06/20 05:02:02;;;;;;;2.30;0.60;;;13.40;99.90;;;;;;20851950;28;20045;-40
2022/06/20 05:12:16;;;;;;;4.25;0.55;;;13.60;99.90;;;;;;20849862;28;20067;-40
2022/06/20 05:22:29;;;;;;;2.15;0.50;;;13.90;99.90;;;;;;20847913;28;20045;-40
2022/06/20 05:32:49;;;;;;;1.15;0.60;;;14.10;99.90;;;;;;20845354;28;20300;-40
2022/06/20 05:42:50;;;;;;;2.78;0.70;;;14.40;99.90;;;;;;20853607;28;20041;-40
2022/06/20 05:52:52;;;;;;;2.55;0.35;;;14.80;99.90;;;;;;20848022;28;20048;-40
2022/06/20 06:02:57;;;;;;;13.18;1.20;;;15.00;99.90;;;;;;20843296;28;21679;-40
2022/06/20 06:13:13;;;;;;;11.75;0.88;;;15.40;99.90;;;;;;20856432;28;20045;-40
2022/06/20 06:23:15;;;;;;;6.32;1.25;;;15.80;99.90;;;;;;20853776;28;20044;-40
2022/06/20 06:33:23;;;;;;;1.55;0.47;;;16.00;99.90;;;;;;20839262;28;20036;-40
2022/06/20 06:43:28;;;;;;;5.43;1.13;;;16.20;99.90;;;;;;20702277;28;20531;-40
2022/06/20 06:54:03;;;;;;;1.13;0.47;;;16.10;99.90;;;;;;20699718;28;20610;-40
2022/06/20 07:04:25;;;;;;;1.10;0.50;;;16.30;99.90;;;;;;20704091;28;20037;-40
2022/06/20 07:14:26;;;;;;;2.25;0.73;;;16.60;99.90;;;;;;20698926;28;20045;-40
2022/06/20 07:24:31;;;;;;;1.55;0.77;;;16.70;99.90;;;;;;20702262;28;20445;-40
2022/06/20 07:34:41;;;;;;;1.30;0.68;;;16.70;99.90;;;;;;20708426;28;20112;-40
2022/06/20 07:45:14;;;;;;;4.15;0.90;;;16.70;99.90;;;;;;20862021;28;20437;-40
2022/06/20 07:55:20;;;;;;;2.22;0.57;;;17.00;99.90;;;;;;20801034;28;20288;-40
2022/06/20 08:05:29;;;;;;;2.42;0.85;;;17.00;99.90;;;;;;20877224;28;20368;-40
2022/06/20 08:16:01;;;;;;;1.70;0.70;;;17.00;99.90;;;;;;20817992;28;20525;-40
2022/06/20 08:26:08;;;;;;;3.22;0.70;;;17.40;99.90;;;;;;20831770;28;20132;-38
2022/06/20 08:36:28;;;;;;;1.57;0.63;;;17.30;99.90;;;;;;20833741;28;20447;-38
2022/06/20 08:46:38;;;;;;;2.17;0.57;;;17.20;99.90;;;;;;20897858;28;20696;-38
2022/06/20 08:56:59;;;;;;;1.00;0.32;;;17.40;99.90;;;;;;20867181;28;20041;-38
2022/06/20 09:07:15;;;;;;;1.77;0.20;;;17.80;99.90;;;;;;20855730;28;20043;-38
2022/06/20 09:17:50;;;;;;;0.90;0.22;;;18.10;99.90;;;;;;20863631;28;20052;-38
2022/06/20 09:28:05;;;;;;;1.25;0.40;;;18.30;99.90;;;;;;20857723;28;20041;-38
2022/06/20 09:38:44;;;;;;;0.77;0.35;;;18.70;99.90;;;;;;20841239;28;20051;-38
2022/06/20 09:49:19;;;;;;;2.17;0.75;;;19.10;99.90;;;;;;20800336;28;20291;-38
2022/06/20 09:59:29;;;;;;;2.33;0.80;;;19.20;99.90;;;;;;20820137;28;20461;-38
2022/06/20 10:09:35;;;;;;;6.45;0.52;;;18.80;99.90;;;;;;20829457;28;20056;-38
2022/06/20 10:20:12;;;;;;;1.17;0.50;;;19.00;99.90;;;;;;20839517;28;20037;-38
2022/06/20 10:30:28;;;;;;;0.93;0.40;;;19.00;99.90;;;;;;20803264;28;20052;-38
2022/06/20 10:40:54;;;;;;;1.88;0.50;;;19.10;99.90;;;;;;20849368;28;20071;-40
2022/06/20 10:51:16;;;;;;;1.10;0.47;;;19.20;99.90;;;;;;20855417;28;20349;-38
2022/06/20 11:01:27;;;;;;;1.55;0.57;;;19.30;99.90;;;;;;20861917;28;20041;-39
2022/06/20 11:11:48;;;;;;;1.17;0.50;;;19.50;99.90;;;;;;20849740;28;21474;-39
2022/06/20 11:21:55;;;;;;;1.30;0.70;;;19.20;99.90;;;;;;20844548;28;20704;-38
2022/06/20 11:32:21;;;;;;;1.10;0.40;;;19.10;99.90;;;;;;20844874;28;20033;-39
2022/06/20 11:42:58;;;;;;;1.52;0.65;;;19.10;99.90;;;;;;20860848;28;20481;-38
2022/06/20 11:53:13;;;;;;;1.67;0.70;;;18.90;99.90;;;;;;20864043;28;20037;-39
2022/06/20 12:03:51;;;;;;;1.38;0.40;;;18.70;99.90;;;;;;20822824;28;20516;-38
2022/06/20 12:14:11;;;;;;;;;;;18.70;99.90;;;;;;20842954;28;20739;-38
2022/06/20 12:24:12;;;;;;;1.30;0.52;;;19.00;99.90;;;;;;20827972;28;19952;-39
2022/06/20 12:34:16;;;;;;;1.17;0.52;;;18.90;99.90;;;;;;20849519;28;20404;-38
2022/06/20 12:44:35;;;;;;;2.58;1.60;;;19.00;99.90;;;;;;20850122;28;20036;-38
2022/06/20 12:54:51;;;;;;;3.72;0.93;;;18.60;99.90;;;;;;20868716;28;21185;-38
2022/06/20 13:05:11;;;;;;;2.15;0.63;;;18.90;99.90;;;;;;20864446;28;20033;-38
2022/06/20 13:15:40;;;;;;;1.00;0.43;;;18.90;99.90;;;;;;20856721;28;21028;-38
2022/06/20 13:25:53;;;;;;;0.70;0.40;;;18.80;99.90;;;;;;20856251;28;20061;-38
2022/06/20 13:36:17;;;;;;;1.95;0.55;;;18.90;99.90;;;;;;20817290;28;20590;-38
2022/06/20 13:46:30;;;;;;;0.90;0.40;;;19.00;99.90;;;;;;20856524;28;20476;-38
2022/06/20 13:56:43;;;;;;;1.63;0.57;;;19.00;99.90;;;;;;20867304;28;20403;-38
2022/06/20 14:06:49;;;;;;;3.83;0.65;;;18.70;99.90;;;;;;20855555;28;20365;-38
2022/06/20 14:16:57;;;;;;;1.42;0.52;;;18.80;99.90;;;;;;20864069;28;20483;-38
2022/06/20 14:27:23;;;;;;;1.45;0.40;;;18.90;99.90;;;;;;20860704;28;20045;-39
2022/06/20 14:37:25;;;;;;;1.85;0.60;;;18.70;99.90;;;;;;20816509;28;20495;-38
2022/06/20 14:47:34;;;;;;;1.52;0.52;;;19.20;99.90;;;;;;20852604;28;20032;-38
2022/06/20 14:57:48;;;;;;;1.50;0.43;;;19.40;99.90;;;;;;20860011;28;20585;-39
2022/06/20 15:08:15;;;;;;;1.10;0.30;;;19.10;99.90;;;;;;20847251;28;21677;-38
2022/06/20 15:18:23;;;;;;;1.10;0.30;;;18.70;99.90;;;;;;20822241;28;21310;-38
2022/06/20 15:28:30;;;;;;;2.38;1.38;;;18.70;99.90;;;;;;20850705;28;22306;-38
2022/06/20 15:38:54;;;;;;;1.07;0.43;;;18.60;99.90;;;;;;20872233;28;20601;-39
2022/06/20 15:49:15;;;;;;;1.98;0.63;;;18.50;99.90;;;;;;20847429;28;21619;-39
2022/06/20 15:59:44;;;;;;;1.02;0.60;;;18.60;99.90;;;;;;20888500;28;20032;-39
2022/06/20 16:10:29;;;;;;;1.77;0.63;;;18.50;99.90;;;;;;20857274;28;21006;-39
2022/06/20 16:20:34;;;;;;;1.58;0.43;;;18.50;99.90;;;;;;20641969;28;21592;-39
2022/06/20 16:30:38;;;;;;;0.60;0.28;;;18.40;99.90;;;;;;20851912;28;20036;-39
2022/06/20 16:40:54;;;;;;;1.30;0.60;;;18.30;99.90;;;;;;20867285;28;20055;-39
2022/06/20 16:51:19;;;;;;;1.60;0.77;;;18.30;99.90;;;;;;20852161;28;20048;-39
2022/06/20 17:01:44;;;;;;;1.17;0.40;;;18.30;99.90;;;;;;20870280;28;20037;-39
2022/06/20 17:12:13;;;;;;;2.38;0.77;;;18.10;99.90;;;;;;20860158;28;20052;-38
2022/06/20 17:22:28;;;;;;;0.75;0.35;;;18.10;99.90;;;;;;20857948;28;20048;-39
2022/06/20 17:32:45;;;;;;;8.60;0.50;;;18.00;99.90;;;;;;20862660;28;20044;-39
2022/06/20 17:43:26;;;;;;;3.67;0.82;;;18.10;99.90;;;;;;20877962;28;20814;-39
2022/06/20 17:54:01;;;;;;;1.40;0.57;;;18.10;99.90;;;;;;20847021;28;20037;-39
2022/06/20 18:04:08;;;;;;;0.70;0.35;;;17.90;99.90;;;;;;20880806;28;20044;-39
2022/06/20 18:14:44;;;;;;;1.80;0.65;;;17.80;99.90;;;;;;20862931;28;20036;-39
2022/06/20 18:25:09;;;;;;;3.28;0.70;;;17.70;99.90;;;;;;20843969;28;20596;-39
2022/06/20 18:35:14;;;;;;;1.52;0.68;;;17.60;99.90;;;;;;20873715;28;21421;-38
2022/06/20 18:45:35;;;;;;;1.50;0.90;;;17.50;99.90;;;;;;20878965;28;20269;-39
2022/06/20 18:55:59;;;;;;;1.38;0.50;;;17.50;99.90;;;;;;20873286;28;20037;-39
2022/06/20 19:06:24;;;;;;;1.90;0.52;;;17.40;99.90;;;;;;20867363;28;20664;-39
2022/06/20 19:16:36;;;;;;;1.48;0.57;;;17.20;99.90;;;;;;20861950;28;21420;-39
2022/06/20 19:26:49;;;;;;;2.05;0.70;;;17.00;99.90;;;;;;20854537;28;20064;-39
2022/06/20 19:36:59;;;;;;;1.40;0.60;;;16.80;99.90;;;;;;20858046;28;20142;-39
2022/06/20 19:47:07;;;;;;;1.60;0.50;;;16.70;99.90;;;;;;20855687;28;20032;-39
2022/06/20 19:57:16;;;;;;;1.45;0.50;;;16.50;99.90;;;;;;20853428;28;20044;-39
2022/06/20 20:07:25;;;;;;;1.23;0.50;;;16.40;99.90;;;;;;20866430;28;20040;-48
2022/06/20 20:17:29;;;;;;;1.83;0.55;;;16.20;99.90;;;;;;20862719;28;21424;-39
2022/06/20 20:27:46;;;;;;;1.30;0.52;;;16.20;99.90;;;;;;20854544;28;20051;-38
2022/06/20 20:38:08;;;;;;;7.28;0.98;;;16.00;99.90;;;;;;20866511;28;21272;-39
2022/06/20 20:48:17;;;;;;;2.97;0.70;;;15.90;99.90;;;;;;20855520;28;20102;-39
2022/06/20 20:58:23;;;;;;;1.52;0.52;;;15.70;99.90;;;;;;20867160;28;20041;-39
2022/06/20 21:08:44;;;;;;;2.50;1.05;;;15.60;99.90;;;;;;20874665;28;20241;-39
2022/06/20 21:18:45;;;;;;;1.30;0.60;;;15.50;99.90;;;;;;20880945;28;21360;-39
2022/06/20 21:28:48;;;;;;;2.50;0.85;;;15.30;99.90;;;;;;20875984;28;20060;-39
2022/06/20 21:39:00;;;;;;;1.70;0.80;;;15.10;99.90;;;;;;20883123;28;20590;-39
2022/06/20 21:49:02;;;;;;;1.85;0.70;;;15.00;99.90;;;;;;20863192;28;20372;-39
2022/06/20 21:59:24;;;;;;;1.67;0.73;;;15.00;99.90;;;;;;20878044;28;20303;-39
2022/06/20 22:09:32;;;;;;;3.03;0.90;;;14.70;99.90;;;;;;20859631;28;20079;-40
2022/06/20 22:19:35;;;;;;;6.70;0.90;;;14.50;99.90;;;;;;20860042;28;20172;-40
2022/06/20 22:29:44;;;;;;;2.63;0.73;;;14.40;99.90;;;;;;20868032;28;20467;-39
2022/06/20 22:39:52;;;;;;;1.52;0.50;;;14.20;99.90;;;;;;20863305;28;20544;-39
2022/06/20 22:49:54;;;;;;;2.72;0.85;;;14.30;99.90;;;;;;20865154;28;20041;-39
2022/06/20 22:59:57;;;;;;;1.60;0.70;;;14.30;99.90;;;;;;20865520;28;20040;-39
2022/06/20 23:09:58;;;;;;;1.20;0.68;;;14.30;99.90;;;;;;20849715;28;20044;-39
2022/06/20 23:19:59;;;;;;;2.00;0.80;;;14.00;99.90;;;;;;20858186;28;20194;-40
2022/06/20 23:30:00;;;;;;;3.03;1.08;;;13.90;99.90;;;;;;20861704;28;20680;-41
2022/06/20 23:40:05;;;;;;;1.25;0.50;;;13.70;99.90;;;;;;20870925;28;20052;-40
2022/06/20 23:50:18;;;;;;;2.42;0.80;;;13.60;99.90;;;;;;20858960;28;20508;-40
